Time;durP1;ratioP1;P1;durP2;ratioP2;P2;SDS_P1;SDS_P2;PMS_P1;PMS_P2;Temp;Humidity;BMP_temperature;BMP_pressure;BME280_temperature;BME280_humidity;BME280_pressure;Samples;Min_cycle;Max_cycle;Signal;HPM_P1;HPM_P2
2023/06/16 00:01:23;;;;;;;8.77;5.27;;;;;;;16.76;73.61;100967.63;5000286;28;20207;-86
2023/06/16 00:03:52;;;;;;;5.33;4.83;;;;;;;16.73;73.31;100973.25;4972186;28;20223;-85
2023/06/16 00:06:20;;;;;;;5.30;4.80;;;;;;;16.74;73.01;100980.34;5010635;28;20230;-85
2023/06/16 00:08:48;;;;;;;5.70;4.60;;;;;;;16.71;72.87;100973.38;5004143;28;20286;-85
2023/06/16 00:11:15;;;;;;;5.57;4.93;;;;;;;16.70;72.88;100968.97;5007425;28;20210;-84
2023/06/16 00:13:42;;;;;;;6.20;4.97;;;;;;;16.67;72.85;100962.03;5010489;28;20235;-84
2023/06/16 00:16:09;;;;;;;8.30;4.73;;;;;;;16.67;72.83;100964.72;5000795;28;20221;-85
2023/06/16 00:18:36;;;;;;;6.73;4.97;;;;;;;16.64;72.75;100958.75;5016239;28;20714;-84
2023/06/16 00:21:08;;;;;;;11.57;5.53;;;;;;;16.61;72.86;100958.97;5017237;28;20217;-84
2023/06/16 00:23:35;;;;;;;6.70;5.13;;;;;;;16.59;72.78;100969.00;5016922;28;20220;-84
2023/06/16 00:26:02;;;;;;;6.73;5.27;;;;;;;16.56;72.51;100962.03;5010511;28;20234;-84
2023/06/16 00:28:29;;;;;;;7.80;5.73;;;;;;;16.54;72.68;100965.84;4996854;28;20209;-84
2023/06/16 00:30:55;;;;;;;6.80;5.50;;;;;;;16.52;72.60;100960.59;5005946;28;20207;-85
2023/06/16 00:33:22;;;;;;;6.73;5.17;;;;;;;16.49;72.81;100963.53;5008830;28;20211;-86
2023/06/16 00:35:48;;;;;;;5.33;4.83;;;;;;;16.47;72.47;100961.97;5006070;28;20239;-86
2023/06/16 00:38:16;;;;;;;6.03;5.20;;;;;;;16.41;72.68;100957.94;5007280;28;20652;-86
2023/06/16 00:40:43;;;;;;;5.40;4.90;;;;;;;16.41;72.52;100960.63;5008888;28;20587;-87
2023/06/16 00:43:09;;;;;;;5.00;4.50;;;;;;;16.39;72.59;100964.44;5009770;28;20290;-85
2023/06/16 00:45:36;;;;;;;6.97;5.00;;;;;;;16.35;72.35;100954.91;5007095;28;20213;-87
2023/06/16 00:48:02;;;;;;;6.53;5.40;;;;;;;16.33;72.53;100960.41;5006004;28;20287;-83
2023/06/16 00:50:29;;;;;;;5.73;5.13;;;;;;;16.31;72.32;100965.03;5001551;28;20203;-85
2023/06/16 00:52:56;;;;;;;6.90;5.57;;;;;;;16.29;72.17;100967.03;4999311;28;20217;-85
2023/06/16 00:55:25;;;;;;;6.47;5.10;;;;;;;16.27;71.96;100960.94;5008084;28;20565;-86
2023/06/16 00:57:52;;;;;;;7.60;5.33;;;;;;;16.25;71.85;100958.38;5008231;28;20209;-86
2023/06/16 01:00:20;;;;;;;6.63;5.97;;;;;;;16.24;71.71;100964.72;5003954;28;20197;-86
2023/06/16 01:02:47;;;;;;;6.40;4.97;;;;;;;16.23;71.95;100964.84;5009734;28;20209;-85
2023/06/16 01:05:17;;;;;;;5.87;4.67;;;;;;;16.21;71.58;100961.41;5009870;28;20207;-84
2023/06/16 01:07:52;;;;;;;6.60;5.07;;;;;;;16.20;71.71;100960.56;5008940;28;20270;-85
2023/06/16 01:10:22;;;;;;;7.00;5.30;;;;;;;16.19;71.74;100968.75;5003396;28;20220;-86
2023/06/16 01:13:00;;;;;;;7.50;5.33;;;;;;;16.16;71.64;100964.47;5013578;28;20208;-85
2023/06/16 01:15:28;;;;;;;5.33;4.63;;;;;;;16.16;71.99;100967.16;5004561;28;20206;-87
2023/06/16 01:17:59;;;;;;;7.00;5.60;;;;;;;16.16;72.08;100971.69;5010909;28;20212;-88
2023/06/16 01:20:37;;;;;;;6.57;5.50;;;;;;;16.13;72.39;100961.19;5005718;28;20705;-87
2023/06/16 01:23:25;;;;;;;5.97;5.40;;;;;;;16.12;72.39;100967.56;5005731;28;20237;-88
2023/06/16 01:25:56;;;;;;;6.60;5.90;;;;;;;16.09;72.22;100967.81;4999926;28;20253;-86
2023/06/16 01:28:25;;;;;;;5.77;5.07;;;;;;;16.04;72.44;100960.09;5007199;28;20223;-88
2023/06/16 01:30:52;;;;;;;7.23;5.40;;;;;;;16.02;72.35;100963.91;5002733;28;20202;-87
2023/06/16 01:33:21;;;;;;;6.97;5.70;;;;;;;15.98;72.34;100966.81;5005452;28;20212;-86
2023/06/16 01:35:50;;;;;;;6.97;5.43;;;;;;;15.95;72.60;100967.06;5004667;28;20221;-86
2023/06/16 01:38:17;;;;;;;5.50;5.00;;;;;;;15.93;72.59;100961.00;5006029;28;20582;-87
2023/06/16 01:40:45;;;;;;;6.80;5.40;;;;;;;15.90;72.80;100958.56;4997658;28;20211;-87
2023/06/16 01:43:14;;;;;;;6.47;5.30;;;;;;;15.88;72.86;100954.28;5005898;28;20209;-87
2023/06/16 01:45:42;;;;;;;6.23;5.60;;;;;;;15.88;72.93;100956.97;5015008;28;20212;-88
2023/06/16 01:48:09;;;;;;;5.90;5.27;;;;;;;15.84;73.35;100959.03;5006637;28;20296;-89
2023/06/16 01:50:36;;;;;;;6.90;5.90;;;;;;;15.82;73.58;100952.06;5010464;28;20199;-87
2023/06/16 01:53:02;;;;;;;6.60;5.90;;;;;;;15.80;73.47;100949.50;5009133;28;20212;-87
2023/06/16 01:55:29;;;;;;;6.13;5.10;;;;;;;15.77;73.76;100949.75;5010574;28;20203;-87
2023/06/16 01:57:56;;;;;;;5.73;5.20;;;;;;;15.76;73.66;100955.28;5012655;28;20290;-88
2023/06/16 02:00:27;;;;;;;6.30;5.10;;;;;;;15.74;73.49;100963.44;5003896;28;20237;-88
2023/06/16 02:02:58;;;;;;;9.10;5.57;;;;;;;15.72;73.63;100957.34;5025728;28;20749;-88
2023/06/16 02:05:27;;;;;;;6.73;5.07;;;;;;;15.70;73.51;100953.91;5031389;28;20187;-86
2023/06/16 02:07:55;;;;;;;6.03;4.93;;;;;;;15.69;73.88;100962.09;5005842;28;20235;-86
2023/06/16 02:10:23;;;;;;;6.00;5.20;;;;;;;15.66;73.58;100952.44;5001125;28;20201;-87
2023/06/16 02:12:50;;;;;;;7.53;5.50;;;;;;;15.63;73.71;100948.16;5014680;28;20691;-87
2023/06/16 02:15:18;;;;;;;7.87;5.90;;;;;;;15.61;74.04;100951.94;5017813;28;20290;-87
2023/06/16 02:17:47;;;;;;;5.73;5.13;;;;;;;15.57;73.91;100945.13;5017355;28;20231;-86
2023/06/16 02:20:14;;;;;;;7.27;4.90;;;;;;;15.57;73.94;100954.06;5008413;28;20204;-86
2023/06/16 02:22:41;;;;;;;8.57;5.57;;;;;;;15.54;74.13;100954.25;4998966;28;20222;-86
2023/06/16 02:25:08;;;;;;;8.43;5.80;;;;;;;15.49;73.95;100958.28;5008435;28;20784;-85
2023/06/16 02:27:34;;;;;;;9.30;5.60;;;;;;;15.46;74.53;100963.88;4996864;28;20229;-86
2023/06/16 02:30:01;;;;;;;7.70;5.40;;;;;;;15.42;74.37;100965.09;5011351;28;20208;-86
2023/06/16 02:32:27;;;;;;;7.67;4.87;;;;;;;15.38;74.77;100963.63;5008272;28;20203;-86
2023/06/16 02:34:56;;;;;;;10.67;6.03;;;;;;;15.36;75.27;100960.22;5013363;28;20211;-86
2023/06/16 02:37:27;;;;;;;5.60;5.07;;;;;;;15.36;74.70;100969.13;5018390;28;20224;-87
2023/06/16 02:39:53;;;;;;;10.10;5.70;;;;;;;15.35;74.77;100958.50;5011555;28;20667;-86
2023/06/16 02:42:20;;;;;;;8.63;6.07;;;;;;;15.33;75.24;100955.94;4994939;28;20577;-86
2023/06/16 02:44:46;;;;;;;7.27;5.27;;;;;;;15.33;74.92;100960.44;5002678;28;20216;-87
2023/06/16 02:47:13;;;;;;;6.90;5.13;;;;;;;15.31;74.77;100955.19;5012876;28;20255;-87
2023/06/16 02:49:42;;;;;;;8.07;6.03;;;;;;;15.30;75.18;100950.81;5001111;28;20577;-87
2023/06/16 02:52:11;;;;;;;7.50;5.97;;;;;;;15.31;75.40;100959.72;4994653;28;20582;-86
2023/06/16 02:54:39;;;;;;;7.83;5.20;;;;;;;15.29;75.17;100963.38;5002123;28;20235;-87
2023/06/16 02:57:07;;;;;;;6.60;5.37;;;;;;;15.27;75.35;100959.94;4994250;28;20221;-86
2023/06/16 02:59:33;;;;;;;6.90;5.50;;;;;;;15.28;75.46;100966.16;4993754;28;20219;-86
2023/06/16 03:02:00;;;;;;;7.33;5.70;;;;;;;15.27;75.68;100961.78;5005602;28;20212;-86
2023/06/16 03:04:27;;;;;;;8.03;5.73;;;;;;;15.26;75.57;100963.59;5011775;28;20207;-85
2023/06/16 03:06:57;;;;;;;7.53;5.13;;;;;;;15.26;75.37;100963.59;5004621;28;20238;-86
2023/06/16 03:09:26;;;;;;;6.60;5.70;;;;;;;15.27;75.95;100967.13;5010849;28;20593;-85
2023/06/16 03:11:53;;;;;;;7.87;6.03;;;;;;;15.28;75.94;100963.47;5003237;28;20235;-85
2023/06/16 03:14:20;;;;;;;8.53;5.90;;;;;;;15.28;76.11;100958.13;5015008;28;20207;-85
2023/06/16 03:16:47;;;;;;;6.50;5.83;;;;;;;15.28;75.65;100961.66;5002190;28;20227;-85
2023/06/16 03:19:14;;;;;;;8.43;6.10;;;;;;;15.27;76.11;100962.63;5008317;28;20207;-86
2023/06/16 03:21:40;;;;;;;10.23;6.23;;;;;;;15.27;75.87;100961.78;5010965;28;20211;-86
2023/06/16 03:24:07;;;;;;;8.50;5.70;;;;;;;15.27;75.99;100965.31;5009448;28;20235;-86
2023/06/16 03:26:36;;;;;;;7.67;5.77;;;;;;;15.29;76.01;100967.88;5008262;28;20231;-87
2023/06/16 03:29:02;;;;;;;8.33;5.77;;;;;;;15.28;75.93;100958.97;5007071;28;20231;-86
2023/06/16 03:31:30;;;;;;;7.83;5.73;;;;;;;15.29;76.14;100958.00;5015535;28;20204;-88
2023/06/16 03:33:56;;;;;;;9.00;5.97;;;;;;;15.30;76.14;100964.22;5005165;28;20670;-88
2023/06/16 03:36:23;;;;;;;7.50;6.07;;;;;;;15.29;75.91;100966.06;5011047;28;20614;-87
2023/06/16 03:38:49;;;;;;;7.00;6.10;;;;;;;15.30;75.73;100966.91;5015585;28;20559;-86
2023/06/16 03:41:16;;;;;;;8.83;6.03;;;;;;;15.30;75.90;100974.97;5005218;28;20823;-87
2023/06/16 03:43:44;;;;;;;6.20;5.60;;;;;;;15.31;75.95;100975.81;5004733;28;20211;-86
2023/06/16 03:46:10;;;;;;;7.43;5.90;;;;;;;15.32;75.93;100975.69;5009708;28;20223;-85
2023/06/16 03:48:37;;;;;;;7.83;6.20;;;;;;;15.33;75.65;100973.88;5009694;28;20222;-85
2023/06/16 03:51:03;;;;;;;7.73;6.00;;;;;;;15.34;76.17;100978.25;5014406;28;20208;-84
2023/06/16 03:53:30;;;;;;;6.57;5.77;;;;;;;15.36;75.89;100976.31;5011151;28;20211;-86
2023/06/16 03:55:56;;;;;;;7.57;6.17;;;;;;;15.36;76.14;100974.50;5013152;28;20238;-85
2023/06/16 03:58:23;;;;;;;6.53;5.93;;;;;;;15.37;76.23;100975.34;5007274;28;20201;-85
2023/06/16 04:00:51;;;;;;;6.93;6.07;;;;;;;15.39;76.77;100981.44;5010577;28;20256;-85
2023/06/16 04:03:18;;;;;;;6.00;5.47;;;;;;;15.40;76.57;100986.69;5008854;28;20206;-86
2023/06/16 04:05:44;;;;;;;7.60;5.23;;;;;;;15.41;76.35;100987.53;5010096;28;20209;-86
2023/06/16 04:08:11;;;;;;;6.30;5.53;;;;;;;15.42;76.41;100984.72;5008002;28;20231;-86
2023/06/16 04:10:38;;;;;;;8.27;5.67;;;;;;;15.45;76.48;100986.31;5014119;28;20218;-86
2023/06/16 04:13:05;;;;;;;9.40;5.50;;;;;;;15.47;76.48;100992.44;5006218;28;20210;-86
2023/06/16 04:15:31;;;;;;;9.53;6.00;;;;;;;15.48;76.25;100988.78;5013460;28;20295;-86
2023/06/16 04:17:59;;;;;;;7.10;5.87;;;;;;;15.50;76.28;100989.50;5010802;28;20203;-86
2023/06/16 04:20:26;;;;;;;6.97;5.33;;;;;;;15.51;76.45;100994.75;5010385;28;20380;-85
2023/06/16 04:22:52;;;;;;;6.83;5.73;;;;;;;15.53;76.35;100991.97;5013544;28;20300;-85
2023/06/16 04:25:21;;;;;;;8.80;5.77;;;;;;;15.54;76.19;100989.16;5019407;28;20215;-87
2023/06/16 04:27:51;;;;;;;9.07;5.97;;;;;;;15.53;76.09;100991.97;5011536;28;20767;-87
2023/06/16 04:30:22;;;;;;;6.77;5.60;;;;;;;15.55;76.00;100990.91;5009857;28;20199;-87
2023/06/16 04:32:49;;;;;;;6.97;5.37;;;;;;;15.56;76.27;100989.94;5007662;28;20199;-86
2023/06/16 04:35:17;;;;;;;6.03;5.43;;;;;;;15.58;76.22;100989.81;5008633;28;20207;-86
2023/06/16 04:37:43;;;;;;;7.03;5.47;;;;;;;15.61;76.17;100982.34;5003812;28;20225;-86
2023/06/16 04:40:11;;;;;;;9.03;5.70;;;;;;;15.61;76.32;100979.66;5003115;28;20218;-86
2023/06/16 04:42:37;;;;;;;7.37;5.97;;;;;;;15.62;76.24;100991.25;4999865;28;20202;-86
2023/06/16 04:45:07;;;;;;;7.63;6.50;;;;;;;15.62;75.65;100983.19;5009357;28;20220;-86
2023/06/16 04:47:34;;;;;;;7.77;6.03;;;;;;;15.60;75.84;100982.47;5001370;28;20305;-86
2023/06/16 04:50:01;;;;;;;7.90;6.50;;;;;;;15.61;75.72;100992.22;5001512;28;20262;-85
2023/06/16 04:52:30;;;;;;;6.53;5.50;;;;;;;15.61;76.17;100993.06;4998297;28;20204;-86
2023/06/16 04:54:56;;;;;;;8.10;5.73;;;;;;;15.61;75.65;100992.22;5002932;28;20203;-85
2023/06/16 04:57:23;;;;;;;7.30;5.53;;;;;;;15.61;76.17;100990.41;5005114;28;20226;-85
2023/06/16 04:59:49;;;;;;;7.30;5.70;;;;;;;15.61;75.93;100982.34;5013804;28;20565;-87
2023/06/16 05:02:17;;;;;;;8.07;6.53;;;;;;;15.61;76.03;100984.16;5004916;28;20204;-87
2023/06/16 05:04:43;;;;;;;12.20;6.43;;;;;;;15.63;76.07;100990.28;5006610;28;20304;-87
2023/06/16 05:07:10;;;;;;;6.03;5.43;;;;;;;15.65;76.46;100980.28;5010035;28;20673;-86
2023/06/16 05:09:39;;;;;;;8.63;6.83;;;;;;;15.68;76.32;100985.41;5005948;28;20232;-86
2023/06/16 05:12:06;;;;;;;8.27;6.07;;;;;;;15.69;76.45;100987.13;5014040;28;20209;-86
2023/06/16 05:14:33;;;;;;;9.07;6.43;;;;;;;15.74;76.64;100992.97;5003027;28;20197;-86
2023/06/16 05:16:59;;;;;;;6.47;5.67;;;;;;;15.78;76.66;100990.88;5008293;28;20586;-87
2023/06/16 05:19:26;;;;;;;6.93;6.10;;;;;;;15.82;76.96;100993.22;5008118;28;20557;-88
2023/06/16 05:21:53;;;;;;;9.93;6.93;;;;;;;15.84;76.40;100991.25;5012228;28;20216;-87
2023/06/16 05:24:19;;;;;;;9.00;6.30;;;;;;;15.86;76.60;100994.69;5003288;28;20214;-85
2023/06/16 05:26:47;;;;;;;10.13;6.63;;;;;;;15.88;76.51;100991.88;5014047;28;20236;-86
2023/06/16 05:29:14;;;;;;;7.40;5.83;;;;;;;15.90;75.98;100989.94;5002294;28;20231;-85
2023/06/16 05:31:40;;;;;;;9.77;5.70;;;;;;;15.92;75.68;100993.34;5010614;28;20245;-86
2023/06/16 05:34:07;;;;;;;7.87;6.30;;;;;;;15.93;75.58;100995.06;5000122;28;20212;-85
2023/06/16 05:36:35;;;;;;;10.30;6.70;;;;;;;15.95;75.30;100999.31;5003526;28;20235;-85
2023/06/16 05:39:01;;;;;;;7.00;6.30;;;;;;;15.99;75.12;100994.53;5002932;28;20729;-85
2023/06/16 05:41:28;;;;;;;7.10;6.30;;;;;;;16.01;75.02;100991.75;5003931;28;20207;-85
2023/06/16 05:43:56;;;;;;;9.93;6.50;;;;;;;16.05;75.33;100982.47;5005832;28;20728;-84
2023/06/16 05:46:23;;;;;;;10.73;6.70;;;;;;;16.08;75.51;100991.13;5008911;28;20234;-86
2023/06/16 05:48:50;;;;;;;8.93;6.87;;;;;;;16.13;75.48;100994.28;5018926;28;20233;-85
2023/06/16 05:51:16;;;;;;;8.27;6.53;;;;;;;16.17;75.07;100993.06;5008314;28;20844;-87
2023/06/16 05:53:43;;;;;;;9.50;6.83;;;;;;;16.22;75.02;100987.31;4997259;28;20224;-86
2023/06/16 05:56:09;;;;;;;8.23;6.77;;;;;;;16.29;75.05;100994.75;5012224;28;20243;-86
2023/06/16 05:58:36;;;;;;;10.47;6.73;;;;;;;16.37;74.97;101002.19;5003593;28;20206;-85
2023/06/16 06:01:05;;;;;;;8.53;7.10;;;;;;;16.44;75.04;101005.22;5016451;28;20209;-87
2023/06/16 06:03:32;;;;;;;9.93;6.50;;;;;;;16.49;75.18;101005.69;5012699;28;20207;-87
2023/06/16 06:05:59;;;;;;;9.87;7.33;;;;;;;16.53;75.03;101015.22;5004504;28;20238;-87
2023/06/16 06:08:27;;;;;;;10.57;7.17;;;;;;;16.56;74.35;101026.56;5000126;28;20241;-86
2023/06/16 06:10:54;;;;;;;10.03;7.53;;;;;;;16.55;74.32;101014.13;5008770;28;20217;-87
2023/06/16 06:13:20;;;;;;;8.87;6.87;;;;;;;16.56;73.98;101010.44;5005202;28;20202;-85
2023/06/16 06:15:47;;;;;;;9.17;7.20;;;;;;;16.57;74.04;101012.16;5010332;28;20578;-85
2023/06/16 06:18:16;;;;;;;13.67;7.43;;;;;;;16.60;74.04;101017.28;5010194;28;20204;-86
2023/06/16 06:20:44;;;;;;;8.73;7.00;;;;;;;16.62;73.78;101004.56;5003083;28;20220;-86
2023/06/16 06:23:11;;;;;;;9.80;7.60;;;;;;;16.64;73.92;100999.97;5007702;28;20304;-85
2023/06/16 06:25:37;;;;;;;8.33;7.47;;;;;;;16.69;73.71;101004.06;5012333;28;20584;-87
2023/06/16 06:28:04;;;;;;;13.47;7.37;;;;;;;16.70;73.70;100998.56;5005634;28;20253;-86
2023/06/16 06:30:31;;;;;;;9.40;7.37;;;;;;;16.73;73.33;101001.00;5011322;28;20229;-85
2023/06/16 06:32:57;;;;;;;10.70;7.90;;;;;;;16.75;72.96;101000.88;5001371;28;20237;-85
2023/06/16 06:35:25;;;;;;;10.07;7.87;;;;;;;16.79;72.73;101007.72;5009211;28;20203;-86
2023/06/16 06:37:52;;;;;;;11.20;8.10;;;;;;;16.80;72.52;101002.22;5011768;28;20296;-86
2023/06/16 06:40:18;;;;;;;9.87;8.10;;;;;;;16.85;72.70;101007.19;5012556;28;20222;-88
2023/06/16 06:42:45;;;;;;;11.77;8.20;;;;;;;16.90;72.67;101011.22;5014134;28;20207;-86
2023/06/16 06:45:13;;;;;;;10.73;8.30;;;;;;;16.96;72.46;101008.00;5001902;28;20216;-87
2023/06/16 06:47:40;;;;;;;9.70;7.13;;;;;;;17.04;72.46;101003.81;5011526;28;20232;-85
2023/06/16 06:50:07;;;;;;;9.43;8.30;;;;;;;17.11;72.25;101005.84;5008318;28;20224;-86
2023/06/16 06:52:35;;;;;;;10.43;7.60;;;;;;;17.17;71.83;101005.34;4998451;28;20213;-86
2023/06/16 06:55:01;;;;;;;8.60;7.80;;;;;;;17.22;71.80;100997.69;5014745;28;20211;-86
2023/06/16 06:57:28;;;;;;;9.73;7.53;;;;;;;17.29;71.48;101004.28;5003389;28;20259;-85
2023/06/16 06:59:54;;;;;;;9.67;7.77;;;;;;;17.33;71.37;101003.03;5003438;28;20238;-87
2023/06/16 07:02:22;;;;;;;9.10;7.60;;;;;;;17.41;71.44;100993.44;5016225;28;20211;-86
2023/06/16 07:04:48;;;;;;;11.37;8.43;;;;;;;17.47;71.58;100993.75;5006879;28;20207;-85
2023/06/16 07:07:15;;;;;;;11.07;8.10;;;;;;;17.51;71.04;100995.22;5008385;28;20223;-87
2023/06/16 07:09:42;;;;;;;9.23;8.07;;;;;;;17.54;70.96;100996.78;5007035;28;20231;-85
2023/06/16 07:12:10;;;;;;;9.27;8.00;;;;;;;17.59;71.05;100999.91;5007437;28;20226;-85
2023/06/16 07:14:38;;;;;;;8.40;7.60;;;;;;;17.62;71.18;100995.13;5012813;28;20200;-87
2023/06/16 07:17:05;;;;;;;9.87;8.07;;;;;;;17.65;71.08;101000.28;5013973;28;20235;-87
2023/06/16 07:19:31;;;;;;;10.03;8.27;;;;;;;17.68;71.06;100999.16;5010300;28;20231;-86
2023/06/16 07:21:58;;;;;;;9.17;8.03;;;;;;;17.68;71.19;100997.31;5010188;28;20212;-85
2023/06/16 07:24:24;;;;;;;10.23;7.70;;;;;;;17.71;71.57;100998.03;5012552;28;20196;-86
2023/06/16 07:26:52;;;;;;;9.20;8.30;;;;;;;17.74;72.24;100995.91;5004770;28;20284;-86
2023/06/16 07:29:19;;;;;;;9.83;8.67;;;;;;;17.76;72.21;100993.06;5003799;28;20253;-87
2023/06/16 07:31:46;;;;;;;9.87;8.30;;;;;;;17.78;72.44;100993.81;5005344;28;20216;-86
2023/06/16 07:34:12;;;;;;;8.80;7.87;;;;;;;17.81;72.74;100988.16;5005158;28;20212;-86
2023/06/16 07:36:39;;;;;;;8.80;8.00;;;;;;;17.84;73.21;100987.88;5004409;28;20226;-85
2023/06/16 07:39:05;;;;;;;10.37;8.30;;;;;;;17.88;73.51;100979.41;5002157;28;20207;-87
2023/06/16 07:41:33;;;;;;;9.47;8.57;;;;;;;17.91;73.39;100986.38;5005399;28;20306;-86
2023/06/16 07:44:00;;;;;;;10.17;9.07;;;;;;;17.93;73.36;100990.59;5002925;28;20205;-86
2023/06/16 07:46:27;;;;;;;10.07;8.30;;;;;;;17.96;73.16;100982.25;5009424;28;20232;-85
2023/06/16 07:48:53;;;;;;;10.93;8.87;;;;;;;17.99;72.82;100979.28;5004642;28;20228;-86
2023/06/16 07:51:21;;;;;;;9.10;8.03;;;;;;;18.04;72.81;100987.81;5004803;28;20210;-86
2023/06/16 07:53:49;;;;;;;10.33;8.50;;;;;;;18.08;72.46;100983.00;4999782;28;20228;-86
2023/06/16 07:56:16;;;;;;;9.57;7.50;;;;;;;18.12;72.18;100980.88;5002488;28;20672;-86
2023/06/16 07:58:42;;;;;;;8.50;7.70;;;;;;;18.16;71.65;100976.91;5012523;28;20596;-86
2023/06/16 08:01:10;;;;;;;11.33;8.07;;;;;;;18.19;71.26;100979.34;5005623;28;20217;-86
2023/06/16 08:03:37;;;;;;;7.87;7.07;;;;;;;18.21;71.26;100980.06;5011021;28;20220;-86
2023/06/16 08:06:04;;;;;;;10.90;8.10;;;;;;;18.25;71.17;100982.34;5010730;28;20224;-86
2023/06/16 08:08:32;;;;;;;8.97;7.60;;;;;;;18.30;71.35;100973.81;5010190;28;20581;-86
2023/06/16 08:10:59;;;;;;;7.80;7.00;;;;;;;18.36;71.44;100979.53;5012067;28;20607;-86
2023/06/16 08:13:26;;;;;;;7.47;6.77;;;;;;;18.43;71.37;100973.59;5009626;28;20206;-87
2023/06/16 08:15:53;;;;;;;7.40;6.60;;;;;;;18.46;70.59;100963.34;5010156;28;20707;-86
2023/06/16 08:18:20;;;;;;;7.87;6.40;;;;;;;18.51;70.62;100962.94;5000461;28;20205;-87
2023/06/16 08:20:47;;;;;;;8.83;6.40;;;;;;;18.56;70.57;100966.06;5012032;28;20205;-86
2023/06/16 08:23:14;;;;;;;7.93;6.67;;;;;;;18.63;70.37;100967.25;5008505;28;20211;-86
2023/06/16 08:25:40;;;;;;;7.83;6.17;;;;;;;18.68;70.57;100971.22;5007576;28;20224;-87
2023/06/16 08:28:08;;;;;;;7.57;6.30;;;;;;;18.80;70.39;100969.25;5011052;28;20231;-85
2023/06/16 08:30:35;;;;;;;6.53;5.80;;;;;;;18.93;69.92;100968.94;5005065;28;20255;-86
2023/06/16 08:33:01;;;;;;;7.33;6.50;;;;;;;19.12;70.25;100958.13;5004462;28;20723;-86
2023/06/16 08:35:29;;;;;;;6.60;5.87;;;;;;;19.35;69.44;100966.72;5005960;28;20211;-86
2023/06/16 08:37:56;;;;;;;6.80;6.10;;;;;;;19.58;68.10;100957.31;5011885;28;20227;-86
2023/06/16 08:40:22;;;;;;;7.70;5.80;;;;;;;19.75;66.91;100951.13;4998961;28;20211;-86
2023/06/16 08:42:49;;;;;;;6.47;5.37;;;;;;;19.95;65.44;100954.59;5001561;28;20557;-87
2023/06/16 08:45:18;;;;;;;7.97;5.70;;;;;;;20.05;64.04;100950.00;5004103;28;20217;-86
2023/06/16 08:47:45;;;;;;;6.60;5.20;;;;;;;20.20;63.51;100955.75;4999163;28;20227;-86
2023/06/16 08:50:13;;;;;;;5.73;4.80;;;;;;;20.45;63.29;100946.91;5008876;28;20322;-87
2023/06/16 08:52:42;;;;;;;7.23;4.67;;;;;;;20.71;62.18;100938.88;5009709;28;20218;-87
2023/06/16 08:55:11;;;;;;;5.57;5.07;;;;;;;20.87;59.28;100943.59;5008147;28;20212;-87
2023/06/16 08:57:44;;;;;;;6.05;4.47;;;;;;;20.99;58.72;100942.31;5005603;28;20227;-86
2023/06/16 09:00:13;;;;;;;7.00;5.07;;;;;;;21.17;58.04;100939.56;5001746;28;20202;-87
2023/06/16 09:02:41;;;;;;;6.53;4.75;;;;;;;21.35;58.09;100940.41;4998842;28;20214;-87
2023/06/16 09:05:08;;;;;;;6.65;4.28;;;;;;;21.59;57.32;100942.41;5008911;28;20207;-86
2023/06/16 09:07:39;;;;;;;5.35;4.85;;;;;;;21.80;56.37;100939.31;5007888;28;20852;-87
2023/06/16 09:10:08;;;;;;;6.35;4.53;;;;;;;21.98;55.72;100933.78;5010504;28;20238;-87
2023/06/16 09:12:35;;;;;;;5.55;4.07;;;;;;;22.10;54.61;100921.66;5010770;28;20811;-86
2023/06/16 09:15:06;;;;;;;5.32;3.97;;;;;;;22.17;52.38;100936.25;5006784;28;20301;-88
2023/06/16 09:17:34;;;;;;;5.22;3.75;;;;;;;22.19;51.57;100928.81;5001168;28;20262;-88
2023/06/16 09:20:01;;;;;;;4.80;4.30;;;;;;;22.24;51.15;100920.16;5000240;28;20254;-87
2023/06/16 09:22:29;;;;;;;4.55;3.95;;;;;;;22.34;51.73;100926.28;5001316;28;20211;-86
2023/06/16 09:24:56;;;;;;;4.35;3.83;;;;;;;22.48;51.14;100929.19;5002636;28;20214;-88
2023/06/16 09:27:27;;;;;;;6.05;4.10;;;;;;;22.59;50.53;100930.72;5000302;28;20226;-88
2023/06/16 09:29:59;;;;;;;5.00;4.20;;;;;;;22.76;50.94;100920.72;5000222;28;20696;-87
2023/06/16 09:32:25;;;;;;;4.65;4.10;;;;;;;22.99;50.96;100915.50;5006798;28;20202;-87
2023/06/16 09:34:52;;;;;;;5.15;4.30;;;;;;;23.16;50.11;100917.16;5000142;28;20721;-87
2023/06/16 09:37:20;;;;;;;4.65;3.75;;;;;;;23.32;49.10;100922.56;4994898;28;20230;-86
2023/06/16 09:39:47;;;;;;;6.70;4.32;;;;;;;23.45;48.62;100922.06;5005627;28;20649;-87
2023/06/16 09:42:16;;;;;;;6.65;4.38;;;;;;;23.58;48.45;100918.81;5001929;28;20203;-87
2023/06/16 09:44:44;;;;;;;4.80;4.40;;;;;;;23.71;47.54;100914.50;4992720;28;20210;-86
2023/06/16 09:47:14;;;;;;;5.47;4.45;;;;;;;23.78;46.82;100912.78;5008455;28;20733;-86
2023/06/16 09:49:40;;;;;;;5.25;4.75;;;;;;;23.86;47.59;100909.16;5005274;28;20269;-88
2023/06/16 09:52:07;;;;;;;8.13;4.35;;;;;;;24.01;47.68;100903.81;5000592;28;20207;-88
2023/06/16 09:54:34;;;;;;;4.80;4.30;;;;;;;24.22;47.43;100896.72;5002360;28;20234;-87
2023/06/16 09:57:01;;;;;;;5.35;4.50;;;;;;;24.36;45.92;100897.03;5006517;28;20260;-87
2023/06/16 09:59:28;;;;;;;4.82;4.43;;;;;;;24.47;45.98;100902.91;5009975;28;20234;-88
2023/06/16 10:01:58;;;;;;;7.88;4.13;;;;;;;24.59;45.16;100889.69;5000822;28;20215;-87
2023/06/16 10:04:25;;;;;;;4.97;4.25;;;;;;;24.65;44.68;100891.69;5002526;28;20683;-87
2023/06/16 10:06:55;;;;;;;5.20;4.40;;;;;;;24.77;44.47;100892.94;5008177;28;20239;-85
2023/06/16 10:09:29;;;;;;;5.35;4.32;;;;;;;24.96;44.99;100888.06;5007169;28;20207;-87
2023/06/16 10:11:58;;;;;;;5.07;4.35;;;;;;;25.13;43.50;100886.84;5010099;28;20202;-85
2023/06/16 10:14:28;;;;;;;4.95;4.55;;;;;;;25.23;42.81;100882.84;5005432;28;20198;-86
2023/06/16 10:16:58;;;;;;;4.68;4.28;;;;;;;25.29;42.37;100877.66;5000732;28;20622;-86
2023/06/16 10:19:25;;;;;;;5.20;4.38;;;;;;;25.31;41.88;100886.50;5003837;28;20213;-85
2023/06/16 10:21:52;;;;;;;5.10;4.55;;;;;;;25.34;41.55;100877.94;5013008;28;20206;-87
2023/06/16 10:24:20;;;;;;;5.22;4.40;;;;;;;25.42;41.94;100870.53;4998703;28;20674;-86
2023/06/16 10:26:47;;;;;;;4.95;4.45;;;;;;;25.58;41.83;100875.78;5006982;28;20238;-88
2023/06/16 10:29:16;;;;;;;7.28;4.75;;;;;;;25.75;40.67;100883.81;5003143;28;20215;-87
2023/06/16 10:31:45;;;;;;;5.25;4.75;;;;;;;25.86;41.15;100878.69;5005711;28;20924;-87
2023/06/16 10:34:18;;;;;;;6.50;5.00;;;;;;;25.91;41.02;100865.31;5009203;28;20207;-86
2023/06/16 10:36:45;;;;;;;6.32;5.30;;;;;;;25.95;41.34;100865.78;5018515;28;20222;-86
2023/06/16 10:39:12;;;;;;;5.15;4.75;;;;;;;26.03;41.33;100873.84;5012144;28;20261;-86
2023/06/16 10:41:50;;;;;;;5.15;4.65;;;;;;;26.06;40.57;100862.56;5005174;28;20280;-86
2023/06/16 10:44:26;;;;;;;4.97;4.53;;;;;;;26.09;40.72;100861.31;5007038;28;20206;-86
2023/06/16 10:47:35;;;;;;;5.28;4.85;;;;;;;26.14;41.38;100862.44;5006284;28;20222;-86
2023/06/16 10:50:05;;;;;;;5.47;4.82;;;;;;;26.21;41.35;100855.16;5007093;28;20211;-86
2023/06/16 10:52:51;;;;;;;5.40;4.90;;;;;;;26.25;41.22;100859.19;5009338;28;20808;-87
2023/06/16 10:55:35;;;;;;;5.35;4.45;;;;;;;26.28;41.26;100861.53;5004777;28;20210;-86
2023/06/16 10:58:26;;;;;;;5.22;4.32;;;;;;;26.27;41.13;100864.47;5009602;28;20748;-87
2023/06/16 11:01:24;;;;;;;5.50;5.00;;;;;;;26.23;40.93;100869.47;5007643;28;20242;-86
2023/06/16 11:04:00;;;;;;;5.65;5.20;;;;;;;26.14;41.54;100870.63;5002869;28;20298;-85
2023/06/16 11:06:28;;;;;;;5.07;4.63;;;;;;;26.04;41.58;100881.00;5009950;28;20720;-86
2023/06/16 11:08:57;;;;;;;6.03;5.47;;;;;;;25.95;41.22;100873.97;4998814;28;20638;-85
2023/06/16 11:11:32;;;;;;;5.97;5.38;;;;;;;25.84;41.63;100875.31;5011871;28;20227;-88
2023/06/16 11:14:00;;;;;;;6.40;5.93;;;;;;;25.74;41.84;100868.47;5009941;28;20207;-85
2023/06/16 11:16:26;;;;;;;6.57;6.00;;;;;;;25.63;42.00;100866.19;5006102;28;20228;-88
2023/06/16 11:18:54;;;;;;;5.78;5.22;;;;;;;25.60;42.43;100867.44;5013331;28;20715;-87
2023/06/16 11:21:21;;;;;;;6.88;6.03;;;;;;;25.67;42.53;100864.78;4998255;28;20199;-87
2023/06/16 11:23:49;;;;;;;6.93;6.32;;;;;;;25.77;42.73;100862.63;5008118;28;20203;-86
2023/06/16 11:26:18;;;;;;;6.80;6.20;;;;;;;25.80;42.86;100863.06;5003064;28;20261;-84
2023/06/16 11:28:45;;;;;;;6.97;6.28;;;;;;;25.85;43.02;100865.25;5009424;28;20210;-86